Climatologie pour Saint-Brevin les Pins
Jour • Résumé pour novembre 10, 2017 Système :  Métrique    Anglais   Mixte
« - 1 jour
+ 1 jour »
Jour Semaine Mois Année Personnalisé
  Maximum : Minimum : Moyenne :
Température sous abri : 14.4 °C 8.1 °C 11.4 °C
Point de rosée : 12.1 °C 7.8 °C 10.4 °C
Humidité : 99 % 83 % 94 %
Vitesse du vent : 22.5 km/h 0.0 km/h 5.3 km/h
Rafale : 30.6 km/h - -
Direction :- - WNW
Pression : 1028.3 hPa 1026.0 hPa -
Précipitations : 0.3 mm    
Historical Graphs
 
 
Tableau de données pour novembre 10, 2017
Heure Tempé Pt rosée Pression Vent Vitesse Rafale Humidité Taux pluie (/hr) Soleil
00:00 11.0 °C 10.7 °C 1028.3 hPa Calm   9.7 km/h 98 % 0.0 mm 0 W/m2
00:10 11.2 °C 10.9 °C 1028.3 hPa Calm   9.7 km/h 98 % 0.0 mm 0 W/m2
00:15 11.2 °C 10.9 °C 1028.3 hPa Calm   9.7 km/h 98 % 0.0 mm 0 W/m2
00:20 11.2 °C 10.9 °C 1028.0 hPa Calm   6.4 km/h 98 % 0.0 mm 0 W/m2
00:25 11.1 °C 10.8 °C 1028.0 hPa Calm   6.4 km/h 98 % 0.0 mm 0 W/m2
00:30 10.9 °C 10.6 °C 1028.0 hPa Calm   6.4 km/h 98 % 0.0 mm 0 W/m2
00:35 10.8 °C 10.5 °C 1028.0 hPa Calm   3.2 km/h 98 % 0.0 mm 0 W/m2
00:40 10.7 °C 10.4 °C 1028.0 hPa Calm   3.2 km/h 98 % 0.0 mm 0 W/m2
00:45 10.6 °C 10.3 °C 1028.0 hPa Calm     98 % 0.0 mm 0 W/m2
00:50 10.4 °C 10.1 °C 1028.0 hPa Calm   9.7 km/h 98 % 0.0 mm 0 W/m2
00:55 10.3 °C 10.0 °C 1027.7 hPa Calm   9.7 km/h 98 % 0.0 mm 0 W/m2
01:00 10.4 °C 10.1 °C 1027.3 hPa Calm   6.4 km/h 98 % 0.0 mm 0 W/m2
01:05 10.2 °C 9.9 °C 1027.3 hPa Calm   6.4 km/h 98 % 0.0 mm 0 W/m2
01:10 10.1 °C 9.8 °C 1027.3 hPa Calm   3.2 km/h 98 % 0.0 mm 0 W/m2
01:15 9.8 °C 9.5 °C 1027.3 hPa Calm     98 % 0.0 mm 0 W/m2
01:20 9.8 °C 9.5 °C 1027.3 hPa Calm   1.6 km/h 98 % 0.0 mm 0 W/m2
01:25 9.6 °C 9.3 °C 1027.0 hPa Calm   1.6 km/h 98 % 0.0 mm 0 W/m2
01:30 9.6 °C 9.3 °C 1027.0 hPa Calm   3.2 km/h 98 % 0.0 mm 0 W/m2
01:35 9.3 °C 9.0 °C 1027.0 hPa Calm   4.8 km/h 98 % 0.0 mm 0 W/m2
01:40 9.3 °C 9.0 °C 1027.0 hPa Calm   4.8 km/h 98 % 0.0 mm 0 W/m2
01:45 8.9 °C 8.6 °C 1027.3 hPa Calm   3.2 km/h 98 % 0.0 mm 0 W/m2
01:50 8.7 °C 8.4 °C 1027.3 hPa WNW 4.8 km/h 4.8 km/h 98 % 0.0 mm 0 W/m2
01:55 8.7 °C 8.4 °C 1027.3 hPa Calm   4.8 km/h 98 % 0.0 mm 0 W/m2
02:00 8.7 °C 8.4 °C 1027.3 hPa Calm   3.2 km/h 98 % 0.0 mm 0 W/m2
02:05 8.9 °C 8.6 °C 1027.3 hPa Calm   8.0 km/h 98 % 0.0 mm 0 W/m2
02:10 9.1 °C 8.8 °C 1027.3 hPa Calm   8.0 km/h 98 % 0.0 mm 0 W/m2
02:15 9.1 °C 8.8 °C 1027.7 hPa NW 1.6 km/h 4.8 km/h 98 % 0.0 mm 0 W/m2
02:20 9.3 °C 9.0 °C 1027.7 hPa WNW 1.6 km/h 4.8 km/h 98 % 0.0 mm 0 W/m2
02:25 9.2 °C 8.9 °C 1027.7 hPa Calm   4.8 km/h 98 % 0.0 mm 0 W/m2
02:30 9.3 °C 9.0 °C 1027.7 hPa NW 1.6 km/h 8.0 km/h 98 % 0.0 mm 0 W/m2
02:35 9.6 °C 9.3 °C 1027.3 hPa NW 1.6 km/h 8.0 km/h 98 % 0.0 mm 0 W/m2
02:40 9.7 °C 9.4 °C 1027.3 hPa Calm   4.8 km/h 98 % 0.0 mm 0 W/m2
02:45 9.6 °C 9.3 °C 1027.3 hPa Calm   4.8 km/h 98 % 0.0 mm 0 W/m2
02:50 9.4 °C 9.1 °C 1027.3 hPa Calm   3.2 km/h 98 % 0.0 mm 0 W/m2
02:55 9.2 °C 8.9 °C 1027.3 hPa Calm   3.2 km/h 98 % 0.0 mm 0 W/m2
03:00 9.3 °C 9.0 °C 1027.3 hPa Calm   3.2 km/h 98 % 0.0 mm 0 W/m2
03:05 9.3 °C 9.0 °C 1027.3 hPa Calm     98 % 0.0 mm 0 W/m2
03:10 9.4 °C 9.1 °C 1027.3 hPa Calm     98 % 0.0 mm 0 W/m2
03:15 9.6 °C 9.3 °C 1027.3 hPa Calm     98 % 0.0 mm 0 W/m2
03:20 9.8 °C 9.5 °C 1027.3 hPa Calm   4.8 km/h 98 % 0.0 mm 0 W/m2
03:25 9.8 °C 9.5 °C 1027.3 hPa Calm   4.8 km/h 98 % 0.0 mm 0 W/m2
03:30 10.1 °C 9.8 °C 1027.0 hPa Calm   4.8 km/h 98 % 0.0 mm 0 W/m2
03:35 10.2 °C 9.9 °C 1027.0 hPa Calm   4.8 km/h 98 % 0.0 mm 0 W/m2
03:40 10.1 °C 9.8 °C 1027.0 hPa Calm   3.2 km/h 98 % 0.0 mm 0 W/m2
03:45 10.1 °C 9.8 °C 1027.0 hPa Calm   3.2 km/h 98 % 0.0 mm 0 W/m2
03:50 10.1 °C 9.8 °C 1027.0 hPa WNW 1.6 km/h 3.2 km/h 98 % 0.0 mm 0 W/m2
03:55 10.1 °C 9.8 °C 1027.0 hPa Calm   1.6 km/h 98 % 0.0 mm 0 W/m2
04:00 10.1 °C 9.8 °C 1027.0 hPa Calm   3.2 km/h 98 % 0.0 mm 0 W/m2
04:05 10.1 °C 9.8 °C 1027.0 hPa Calm   4.8 km/h 98 % 0.0 mm 0 W/m2
04:10 10.2 °C 9.9 °C 1027.0 hPa WNW 1.6 km/h 4.8 km/h 98 % 0.0 mm 0 W/m2
04:20 10.4 °C 10.1 °C 1026.6 hPa Calm   9.7 km/h 98 % 0.0 mm 0 W/m2
04:25 10.3 °C 10.0 °C 1027.0 hPa Calm   6.4 km/h 98 % 0.0 mm 0 W/m2
04:30 10.4 °C 10.1 °C 1027.0 hPa Calm   6.4 km/h 98 % 0.0 mm 0 W/m2
04:40 10.4 °C 10.1 °C 1027.0 hPa NNW 1.6 km/h 8.0 km/h 98 % 0.0 mm 0 W/m2
04:45 10.6 °C 10.3 °C 1027.0 hPa NW 1.6 km/h 8.0 km/h 98 % 0.0 mm 0 W/m2
04:50 10.6 °C 10.3 °C 1026.6 hPa NW 4.8 km/h 8.0 km/h 98 % 0.0 mm 0 W/m2
04:55 10.5 °C 10.2 °C 1026.6 hPa Calm   8.0 km/h 98 % 0.0 mm 0 W/m2
05:00 10.4 °C 10.1 °C 1026.6 hPa Calm   4.8 km/h 98 % 0.0 mm 0 W/m2
05:05 10.3 °C 10.0 °C 1026.6 hPa Calm   4.8 km/h 98 % 0.0 mm 0 W/m2
05:10 10.2 °C 9.9 °C 1026.6 hPa Calm   3.2 km/h 98 % 0.0 mm 0 W/m2
05:15 9.9 °C 9.6 °C 1027.0 hPa WNW 3.2 km/h 4.8 km/h 98 % 0.0 mm 0 W/m2
05:20 9.9 °C 9.6 °C 1027.0 hPa WNW 4.8 km/h 4.8 km/h 98 % 0.0 mm 0 W/m2
05:25 10.0 °C 9.7 °C 1026.6 hPa WNW 4.8 km/h 4.8 km/h 98 % 0.0 mm 0 W/m2
05:30 9.9 °C 9.6 °C 1026.6 hPa West 3.2 km/h 12.9 km/h 98 % 0.0 mm 0 W/m2
05:35 9.8 °C 9.5 °C 1026.6 hPa West 4.8 km/h 12.9 km/h 98 % 0.0 mm 0 W/m2
05:40 9.7 °C 9.4 °C 1026.6 hPa WNW 3.2 km/h 8.0 km/h 98 % 0.0 mm 0 W/m2
05:45 9.6 °C 9.3 °C 1026.6 hPa Calm   9.7 km/h 98 % 0.0 mm 0 W/m2
05:50 9.7 °C 9.4 °C 1026.6 hPa WNW 6.4 km/h 9.7 km/h 98 % 0.0 mm 0 W/m2
05:55 9.7 °C 9.4 °C 1026.6 hPa WNW 1.6 km/h 11.3 km/h 98 % 0.0 mm 0 W/m2
06:00 9.7 °C 9.4 °C 1026.6 hPa NW 1.6 km/h 11.3 km/h 98 % 0.0 mm 0 W/m2
06:05 9.6 °C 9.3 °C 1026.6 hPa Calm   11.3 km/h 98 % 0.0 mm 0 W/m2
06:10 9.4 °C 9.1 °C 1026.6 hPa NW 4.8 km/h 9.7 km/h 98 % 0.0 mm 0 W/m2
06:15 9.4 °C 9.1 °C 1027.0 hPa WNW 1.6 km/h 9.7 km/h 98 % 0.0 mm 0 W/m2
06:20 9.5 °C 9.2 °C 1027.0 hPa WNW 1.6 km/h 11.3 km/h 98 % 0.0 mm 0 W/m2
06:25 9.5 °C 9.2 °C 1027.0 hPa WNW 4.8 km/h 11.3 km/h 98 % 0.0 mm 0 W/m2
06:30 9.3 °C 9.0 °C 1027.0 hPa WNW 4.8 km/h 9.7 km/h 98 % 0.0 mm 0 W/m2
06:35 9.3 °C 9.0 °C 1027.0 hPa WNW 3.2 km/h 11.3 km/h 98 % 0.0 mm 0 W/m2
06:40 9.0 °C 8.7 °C 1027.0 hPa Calm   11.3 km/h 98 % 0.0 mm 0 W/m2
06:45 8.8 °C 8.5 °C 1027.0 hPa NW 4.8 km/h 9.7 km/h 98 % 0.0 mm 0 W/m2
06:50 8.9 °C 8.6 °C 1027.0 hPa NNW 6.4 km/h 8.0 km/h 98 % 0.0 mm 0 W/m2
06:55 8.7 °C 8.4 °C 1026.6 hPa WNW 3.2 km/h 11.3 km/h 98 % 0.0 mm 0 W/m2
07:05 8.3 °C 8.0 °C 1027.0 hPa NNW 8.0 km/h 8.0 km/h 98 % 0.0 mm 0 W/m2
07:10 8.2 °C 7.9 °C 1027.0 hPa Calm   8.0 km/h 98 % 0.0 mm 0 W/m2
07:15 8.1 °C 7.8 °C 1027.0 hPa NW 1.6 km/h 8.0 km/h 98 % 0.0 mm 0 W/m2
07:20 8.3 °C 8.0 °C 1027.0 hPa NW 4.8 km/h 11.3 km/h 98 % 0.0 mm 0 W/m2
07:25 8.5 °C 8.2 °C 1027.0 hPa Calm   11.3 km/h 98 % 0.0 mm 0 W/m2
07:30 8.4 °C 8.1 °C 1027.0 hPa WNW 6.4 km/h 11.3 km/h 98 % 0.0 mm 0 W/m2
07:35 8.7 °C 8.4 °C 1027.0 hPa WNW 3.2 km/h 12.9 km/h 98 % 0.0 mm 0 W/m2
07:40 9.4 °C 9.1 °C 1027.0 hPa NW 4.8 km/h 12.9 km/h 98 % 0.0 mm 0 W/m2
07:45 9.6 °C 9.4 °C 1027.0 hPa West 4.8 km/h 12.9 km/h 99 % 0.0 mm 0 W/m2
07:50 9.6 °C 9.4 °C 1027.0 hPa WNW 3.2 km/h 9.7 km/h 99 % 0.0 mm 0 W/m2
07:55 9.6 °C 9.3 °C 1027.0 hPa NW 4.8 km/h 11.3 km/h 98 % 0.0 mm 0 W/m2
08:00 9.7 °C 9.6 °C 1027.0 hPa NW 6.4 km/h 11.3 km/h 99 % 0.0 mm 0 W/m2
08:05 9.7 °C 9.6 °C 1027.0 hPa WNW 4.8 km/h 11.3 km/h 99 % 0.0 mm 0 W/m2
08:10 9.7 °C 9.4 °C 1027.3 hPa North 4.8 km/h 12.9 km/h 98 % 0.0 mm 5 W/m2
08:15 9.6 °C 9.3 °C 1027.3 hPa North 3.2 km/h 14.5 km/h 98 % 0.0 mm 7 W/m2
08:20 9.8 °C 9.5 °C 1027.7 hPa NW 6.4 km/h 14.5 km/h 98 % 0.0 mm 9 W/m2
08:25 10.0 °C 9.7 °C 1027.7 hPa NNW 6.4 km/h 11.3 km/h 98 % 0.0 mm 11 W/m2
08:30 10.1 °C 10.0 °C 1027.7 hPa NW 8.0 km/h 12.9 km/h 99 % 0.0 mm 19 W/m2
08:35 10.3 °C 10.0 °C 1027.7 hPa North 8.0 km/h 12.9 km/h 98 % 0.0 mm 23 W/m2
08:40 10.3 °C 10.0 °C 1027.7 hPa WNW 4.8 km/h 12.9 km/h 98 % 0.0 mm 21 W/m2
08:45 10.4 °C 10.3 °C 1027.7 hPa Calm   12.9 km/h 99 % 0.0 mm 26 W/m2
08:50 10.5 °C 10.2 °C 1027.7 hPa WNW 6.4 km/h 8.0 km/h 98 % 0.0 mm 44 W/m2
08:55 10.6 °C 10.3 °C 1027.7 hPa Calm   9.7 km/h 98 % 0.0 mm 49 W/m2
09:00 10.6 °C 10.3 °C 1027.3 hPa Calm   9.7 km/h 98 % 0.0 mm 47 W/m2
09:05 10.5 °C 10.2 °C 1027.3 hPa Calm   6.4 km/h 98 % 0.0 mm 51 W/m2
09:10 10.5 °C 10.2 °C 1027.3 hPa NW 3.2 km/h 6.4 km/h 98 % 0.0 mm 53 W/m2
09:15 10.6 °C 10.3 °C 1027.3 hPa West 1.6 km/h 6.4 km/h 98 % 0.0 mm 56 W/m2
09:20 10.7 °C 10.4 °C 1027.3 hPa West 3.2 km/h 6.4 km/h 98 % 0.0 mm 63 W/m2
09:25 10.8 °C 10.5 °C 1027.3 hPa Calm   8.0 km/h 98 % 0.3 mm 74 W/m2
09:30 11.1 °C 10.8 °C 1027.3 hPa WNW 4.8 km/h 9.7 km/h 98 % 0.3 mm 90 W/m2
09:35 11.3 °C 11.0 °C 1027.3 hPa WNW 1.6 km/h 9.7 km/h 98 % 0.3 mm 83 W/m2
09:40 11.4 °C 11.1 °C 1027.3 hPa NW 8.0 km/h 11.3 km/h 98 % 0.3 mm 111 W/m2
09:45 11.7 °C 11.4 °C 1027.3 hPa WNW 6.4 km/h 14.5 km/h 98 % 0.3 mm 100 W/m2
09:50 11.7 °C 11.4 °C 1027.3 hPa WNW 6.4 km/h 14.5 km/h 98 % 0.3 mm 114 W/m2
09:55 11.8 °C 11.5 °C 1027.3 hPa NW 4.8 km/h 14.5 km/h 98 % 0.3 mm 104 W/m2
10:00 11.8 °C 11.5 °C 1027.3 hPa WNW 11.3 km/h 12.9 km/h 98 % 0.3 mm 132 W/m2
10:05 11.9 °C 11.6 °C 1027.3 hPa WNW 1.6 km/h 16.1 km/h 98 % 0.3 mm 91 W/m2
10:10 11.9 °C 11.6 °C 1027.3 hPa WNW 4.8 km/h 16.1 km/h 98 % 0.3 mm 81 W/m2
10:15 11.9 °C 11.5 °C 1027.3 hPa NW 4.8 km/h 12.9 km/h 97 % 0.3 mm 72 W/m2
10:20 12.0 °C 11.5 °C 1027.3 hPa NW 4.8 km/h 12.9 km/h 97 % 0.3 mm 88 W/m2
10:25 12.1 °C 11.6 °C 1027.3 hPa WNW 1.6 km/h 12.9 km/h 97 % 0.0 mm 109 W/m2
10:30 12.2 °C 11.7 °C 1027.3 hPa NW 9.7 km/h 14.5 km/h 97 % 0.0 mm 118 W/m2
10:35 12.3 °C 11.9 °C 1027.3 hPa NW 4.8 km/h 17.7 km/h 97 % 0.0 mm 91 W/m2
10:40 12.3 °C 11.7 °C 1027.3 hPa WNW 3.2 km/h 17.7 km/h 96 % 0.0 mm 93 W/m2
10:45 12.4 °C 11.8 °C 1027.0 hPa West 4.8 km/h 17.7 km/h 96 % 0.0 mm 95 W/m2
10:50 12.6 °C 11.8 °C 1027.3 hPa NW 8.0 km/h 17.7 km/h 95 % 0.0 mm 90 W/m2
10:55 12.6 °C 11.8 °C 1027.3 hPa NW 11.3 km/h 16.1 km/h 95 % 0.0 mm 84 W/m2
11:00 12.7 °C 11.7 °C 1027.3 hPa WNW 4.8 km/h 16.1 km/h 94 % 0.0 mm 81 W/m2
11:05 12.7 °C 11.8 °C 1027.3 hPa WNW 6.4 km/h 12.9 km/h 94 % 0.0 mm 63 W/m2
11:10 12.7 °C 11.6 °C 1027.3 hPa NW 11.3 km/h 14.5 km/h 93 % 0.0 mm 60 W/m2
11:15 12.7 °C 11.5 °C 1027.7 hPa WNW 4.8 km/h 17.7 km/h 92 % 0.0 mm 56 W/m2
11:20 12.8 °C 11.5 °C 1027.7 hPa WNW 9.7 km/h 17.7 km/h 92 % 0.0 mm 53 W/m2
11:25 12.7 °C 11.5 °C 1027.7 hPa NW 9.7 km/h 16.1 km/h 92 % 0.0 mm 77 W/m2
11:30 12.8 °C 11.4 °C 1027.7 hPa WNW 11.3 km/h 20.9 km/h 91 % 0.0 mm 121 W/m2
11:35 12.9 °C 11.3 °C 1027.3 hPa WNW 6.4 km/h 24.1 km/h 90 % 0.0 mm 132 W/m2
11:45 13.4 °C 11.6 °C 1027.3 hPa WNW 9.7 km/h 22.5 km/h 89 % 0.0 mm 149 W/m2
11:55 13.5 °C 11.6 °C 1027.3 hPa West 8.0 km/h 20.9 km/h 88 % 0.0 mm 174 W/m2
12:00 13.6 °C 11.7 °C 1027.3 hPa WNW 20.9 km/h 22.5 km/h 88 % 0.0 mm 171 W/m2
12:05 13.6 °C 11.3 °C 1027.3 hPa NW 4.8 km/h 22.5 km/h 86 % 0.0 mm 139 W/m2
12:10 13.6 °C 11.3 °C 1027.3 hPa NW 20.9 km/h 22.5 km/h 86 % 0.0 mm 132 W/m2
12:15 13.6 °C 11.3 °C 1027.0 hPa NW 11.3 km/h 22.5 km/h 86 % 0.0 mm 146 W/m2
12:20 13.6 °C 11.3 °C 1027.0 hPa West 9.7 km/h 24.1 km/h 86 % 0.0 mm 218 W/m2
12:25 13.8 °C 11.5 °C 1027.0 hPa WNW 17.7 km/h 24.1 km/h 86 % 0.0 mm 221 W/m2
12:30 13.9 °C 11.5 °C 1027.0 hPa WNW 11.3 km/h 20.9 km/h 85 % 0.0 mm 234 W/m2
12:35 14.1 °C 11.4 °C 1027.0 hPa West 9.7 km/h 22.5 km/h 84 % 0.0 mm 239 W/m2
12:40 14.2 °C 11.7 °C 1027.0 hPa WNW 6.4 km/h 22.5 km/h 85 % 0.0 mm 209 W/m2
12:45 14.1 °C 11.4 °C 1026.6 hPa WNW 11.3 km/h 20.9 km/h 84 % 0.0 mm 246 W/m2
12:50 14.4 °C 11.7 °C 1026.6 hPa NW 6.4 km/h 20.9 km/h 84 % 0.0 mm 192 W/m2
12:55 14.2 °C 11.4 °C 1027.0 hPa NW 17.7 km/h 22.5 km/h 83 % 0.0 mm 137 W/m2
13:00 14.0 °C 11.2 °C 1027.0 hPa NW 16.1 km/h 29.0 km/h 83 % 0.0 mm 113 W/m2
13:05 13.9 °C 11.4 °C 1027.0 hPa WNW 9.7 km/h 29.0 km/h 85 % 0.0 mm 88 W/m2
13:10 13.8 °C 11.1 °C 1026.6 hPa WNW 8.0 km/h 22.5 km/h 84 % 0.0 mm 83 W/m2
13:15 13.7 °C 11.2 °C 1026.6 hPa WSW 14.5 km/h 22.5 km/h 85 % 0.0 mm 109 W/m2
13:20 13.7 °C 11.2 °C 1026.6 hPa NW 11.3 km/h 30.6 km/h 85 % 0.0 mm 135 W/m2
13:25 13.8 °C 11.3 °C 1026.6 hPa NW 9.7 km/h 30.6 km/h 85 % 0.0 mm 127 W/m2
13:30 13.8 °C 11.3 °C 1026.6 hPa WNW 9.7 km/h 22.5 km/h 85 % 0.0 mm 86 W/m2
13:35 13.7 °C 11.2 °C 1026.6 hPa West 6.4 km/h 24.1 km/h 85 % 0.0 mm 105 W/m2
13:40 13.7 °C 11.4 °C 1026.6 hPa NNW 11.3 km/h 24.1 km/h 86 % 0.0 mm 114 W/m2
13:45 13.7 °C 11.4 °C 1026.6 hPa WNW 6.4 km/h 22.5 km/h 86 % 0.0 mm 90 W/m2
13:50 13.7 °C 11.4 °C 1026.6 hPa North 14.5 km/h 24.1 km/h 86 % 0.0 mm 109 W/m2
13:55 13.7 °C 11.4 °C 1026.6 hPa WNW 9.7 km/h 24.1 km/h 86 % 0.0 mm 84 W/m2
14:00 13.7 °C 11.4 °C 1026.6 hPa NNW 8.0 km/h 22.5 km/h 86 % 0.0 mm 97 W/m2
14:05 13.8 °C 11.5 °C 1026.6 hPa WNW 12.9 km/h 19.3 km/h 86 % 0.0 mm 118 W/m2
14:10 13.8 °C 11.5 °C 1026.6 hPa WNW 8.0 km/h 19.3 km/h 86 % 0.0 mm 160 W/m2
14:15 13.9 °C 11.6 °C 1026.3 hPa West 6.4 km/h 19.3 km/h 86 % 0.0 mm 120 W/m2
14:20 13.9 °C 11.6 °C 1026.3 hPa WNW 6.4 km/h 19.3 km/h 86 % 0.0 mm 104 W/m2
14:25 13.9 °C 11.6 °C 1026.3 hPa WNW 4.8 km/h 17.7 km/h 86 % 0.0 mm 93 W/m2
14:30 13.9 °C 11.6 °C 1026.6 hPa WNW 12.9 km/h 17.7 km/h 86 % 0.0 mm 111 W/m2
14:35 13.9 °C 11.8 °C 1026.3 hPa WNW 17.7 km/h 19.3 km/h 87 % 0.0 mm 62 W/m2
14:40 13.8 °C 11.5 °C 1026.3 hPa NW 4.8 km/h 19.3 km/h 86 % 0.0 mm 53 W/m2
14:45 13.7 °C 11.4 °C 1026.3 hPa NW 6.4 km/h 24.1 km/h 86 % 0.0 mm 58 W/m2
14:50 13.7 °C 11.5 °C 1026.3 hPa NW 12.9 km/h 24.1 km/h 87 % 0.0 mm 44 W/m2
14:55 13.6 °C 11.5 °C 1026.3 hPa NW 9.7 km/h 17.7 km/h 87 % 0.0 mm 49 W/m2
15:00 13.6 °C 11.4 °C 1026.3 hPa NW 6.4 km/h 17.7 km/h 87 % 0.0 mm 63 W/m2
15:05 13.6 °C 11.5 °C 1026.3 hPa NNW 9.7 km/h 17.7 km/h 87 % 0.0 mm 98 W/m2
15:10 13.8 °C 11.7 °C 1026.3 hPa West 6.4 km/h 17.7 km/h 87 % 0.0 mm 105 W/m2
15:15 13.8 °C 11.7 °C 1026.0 hPa NNW 6.4 km/h 19.3 km/h 87 % 0.0 mm 128 W/m2
15:20 13.9 °C 11.6 °C 1026.0 hPa WNW 6.4 km/h 19.3 km/h 86 % 0.0 mm 190 W/m2
15:25 14.2 °C 11.7 °C 1026.0 hPa NW 9.7 km/h 16.1 km/h 85 % 0.0 mm 137 W/m2
15:30 14.1 °C 11.6 °C 1026.0 hPa West 1.6 km/h 16.1 km/h 85 % 0.0 mm 120 W/m2
15:35 14.2 °C 11.9 °C 1026.0 hPa WNW 11.3 km/h 16.1 km/h 86 % 0.0 mm 137 W/m2
15:40 14.4 °C 12.1 °C 1026.0 hPa NW 4.8 km/h 14.5 km/h 86 % 0.0 mm 155 W/m2
15:45 14.3 °C 11.8 °C 1026.0 hPa West 6.4 km/h 16.1 km/h 85 % 0.0 mm 104 W/m2
15:50 14.2 °C 11.9 °C 1026.0 hPa WNW 3.2 km/h 16.1 km/h 86 % 0.0 mm 104 W/m2
15:55 14.1 °C 11.8 °C 1026.0 hPa West 8.0 km/h 16.1 km/h 86 % 0.0 mm 88 W/m2
16:00 14.1 °C 11.7 °C 1026.0 hPa WNW 4.8 km/h 16.1 km/h 86 % 0.0 mm 69 W/m2
16:05 14.0 °C 11.9 °C 1026.0 hPa WSW 8.0 km/h 11.3 km/h 87 % 0.0 mm 65 W/m2
16:10 13.9 °C 11.8 °C 1026.0 hPa WNW 8.0 km/h 16.1 km/h 87 % 0.0 mm 58 W/m2
16:15 13.9 °C 11.8 °C 1026.3 hPa West 9.7 km/h 16.1 km/h 87 % 0.0 mm 47 W/m2
16:20 13.8 °C 11.7 °C 1026.3 hPa NW 6.4 km/h 14.5 km/h 87 % 0.0 mm 32 W/m2
16:25 13.6 °C 11.7 °C 1026.0 hPa West 12.9 km/h 12.9 km/h 88 % 0.0 mm 28 W/m2
16:30 13.3 °C 11.4 °C 1026.0 hPa NW 4.8 km/h 14.5 km/h 88 % 0.0 mm 26 W/m2
16:35 13.2 °C 11.4 °C 1026.0 hPa NW 4.8 km/h 14.5 km/h 89 % 0.0 mm 28 W/m2
16:40 13.1 °C 11.5 °C 1026.3 hPa WNW 4.8 km/h 16.1 km/h 90 % 0.0 mm 26 W/m2
16:45 13.2 °C 11.6 °C 1026.3 hPa WNW 6.4 km/h 16.1 km/h 90 % 0.0 mm 18 W/m2
16:50 13.3 °C 11.7 °C 1026.3 hPa WNW 6.4 km/h 14.5 km/h 90 % 0.0 mm 16 W/m2
16:55 13.3 °C 11.7 °C 1026.3 hPa WNW 11.3 km/h 12.9 km/h 90 % 0.0 mm 14 W/m2
17:00 13.3 °C 11.7 °C 1026.0 hPa WNW 4.8 km/h 12.9 km/h 90 % 0.0 mm 19 W/m2
17:05 13.1 °C 11.5 °C 1026.0 hPa West 8.0 km/h 14.5 km/h 90 % 0.0 mm 21 W/m2
17:10 13.1 °C 11.5 °C 1026.3 hPa WNW 9.7 km/h 14.5 km/h 90 % 0.0 mm 16 W/m2
17:15 13.1 °C 11.6 °C 1026.3 hPa WNW 3.2 km/h 14.5 km/h 91 % 0.0 mm 12 W/m2
17:20 13.0 °C 11.6 °C 1026.3 hPa WNW 6.4 km/h 12.9 km/h 91 % 0.0 mm 11 W/m2
17:25 12.9 °C 11.5 °C 1026.0 hPa WNW 3.2 km/h 12.9 km/h 91 % 0.0 mm 9 W/m2
17:35 12.6 °C 11.3 °C 1026.3 hPa WNW 6.4 km/h 12.9 km/h 92 % 0.0 mm 0 W/m2
17:40 12.5 °C 11.2 °C 1026.6 hPa NNW 3.2 km/h 12.9 km/h 92 % 0.0 mm 0 W/m2
17:45 12.6 °C 11.3 °C 1026.6 hPa WNW 8.0 km/h 12.9 km/h 92 % 0.0 mm 0 W/m2
17:55 12.7 °C 11.4 °C 1026.6 hPa NNW 8.0 km/h 16.1 km/h 92 % 0.0 mm 0 W/m2
18:00 12.5 °C 11.2 °C 1026.6 hPa NW 8.0 km/h 16.1 km/h 92 % 0.0 mm 0 W/m2
18:05 12.5 °C 11.2 °C 1026.6 hPa WNW 4.8 km/h 16.1 km/h 92 % 0.0 mm 0 W/m2
18:10 12.4 °C 11.1 °C 1026.6 hPa NW 14.5 km/h 16.1 km/h 92 % 0.0 mm 0 W/m2
18:15 12.4 °C 11.2 °C 1026.6 hPa WNW 9.7 km/h 16.1 km/h 92 % 0.0 mm 0 W/m2
18:20 12.4 °C 11.2 °C 1026.6 hPa WNW 6.4 km/h 16.1 km/h 92 % 0.0 mm 0 W/m2
18:25 12.3 °C 11.1 °C 1026.6 hPa NW 3.2 km/h 16.1 km/h 92 % 0.0 mm 0 W/m2
18:30 12.2 °C 11.0 °C 1027.0 hPa NW 6.4 km/h 16.1 km/h 92 % 0.0 mm 0 W/m2
18:35 11.9 °C 10.7 °C 1027.0 hPa NW 4.8 km/h 11.3 km/h 92 % 0.0 mm 0 W/m2
18:40 11.8 °C 10.5 °C 1027.0 hPa WNW 3.2 km/h 11.3 km/h 92 % 0.0 mm 0 W/m2
18:45 11.8 °C 10.7 °C 1027.0 hPa NW 4.8 km/h 14.5 km/h 93 % 0.0 mm 0 W/m2
18:50 11.8 °C 10.7 °C 1027.0 hPa WNW 4.8 km/h 14.5 km/h 93 % 0.0 mm 0 W/m2
18:55 11.8 °C 10.7 °C 1027.0 hPa NW 4.8 km/h 11.3 km/h 93 % 0.0 mm 0 W/m2
19:00 11.8 °C 10.7 °C 1027.0 hPa WNW 11.3 km/h 14.5 km/h 93 % 0.0 mm 0 W/m2
19:05 11.9 °C 11.0 °C 1027.0 hPa WNW 3.2 km/h 14.5 km/h 94 % 0.0 mm 0 W/m2
19:10 12.0 °C 10.9 °C 1027.0 hPa WNW 1.6 km/h 11.3 km/h 93 % 0.0 mm 0 W/m2
19:15 11.9 °C 10.8 °C 1027.0 hPa WNW 1.6 km/h 8.0 km/h 93 % 0.0 mm 0 W/m2
19:20 11.8 °C 10.7 °C 1027.0 hPa NW 3.2 km/h 8.0 km/h 93 % 0.0 mm 0 W/m2
19:25 11.8 °C 10.9 °C 1027.3 hPa West 9.7 km/h 12.9 km/h 94 % 0.0 mm 0 W/m2
19:30 11.9 °C 11.0 °C 1027.0 hPa Calm   12.9 km/h 94 % 0.0 mm 0 W/m2
19:40 12.0 °C 10.9 °C 1027.0 hPa NW 4.8 km/h 16.1 km/h 93 % 0.0 mm 0 W/m2
19:45 12.1 °C 11.0 °C 1027.0 hPa WNW 9.7 km/h 16.1 km/h 93 % 0.0 mm 0 W/m2
19:50 12.1 °C 11.0 °C 1027.3 hPa WNW 9.7 km/h 19.3 km/h 93 % 0.0 mm 0 W/m2
19:55 12.1 °C 10.8 °C 1027.3 hPa WNW 6.4 km/h 19.3 km/h 92 % 0.0 mm 0 W/m2
20:00 11.9 °C 10.7 °C 1027.3 hPa NW 8.0 km/h 16.1 km/h 92 % 0.0 mm 0 W/m2
20:05 11.9 °C 10.6 °C 1027.3 hPa WNW 12.9 km/h 24.1 km/h 92 % 0.0 mm 0 W/m2
20:10 11.9 °C 10.5 °C 1027.3 hPa WNW 8.0 km/h 24.1 km/h 91 % 0.0 mm 0 W/m2
20:15 11.7 °C 10.3 °C 1027.3 hPa WNW 4.8 km/h 20.9 km/h 91 % 0.0 mm 0 W/m2
20:20 11.7 °C 10.2 °C 1027.3 hPa WNW 22.5 km/h 22.5 km/h 91 % 0.0 mm 0 W/m2
20:25 11.7 °C 10.2 °C 1027.3 hPa WNW 8.0 km/h 22.5 km/h 91 % 0.0 mm 0 W/m2
20:30 11.5 °C 9.9 °C 1027.3 hPa NW 6.4 km/h 22.5 km/h 90 % 0.0 mm 0 W/m2
20:35 11.4 °C 9.8 °C 1027.3 hPa WNW 4.8 km/h 16.1 km/h 90 % 0.0 mm 0 W/m2
20:40 11.4 °C 10.0 °C 1027.7 hPa NW 4.8 km/h 16.1 km/h 91 % 0.0 mm 0 W/m2
20:45 11.3 °C 9.8 °C 1027.7 hPa WNW 4.8 km/h 12.9 km/h 90 % 0.0 mm 0 W/m2
20:50 11.3 °C 9.9 °C 1027.7 hPa NW 4.8 km/h 12.9 km/h 91 % 0.0 mm 0 W/m2
20:55 11.4 °C 10.0 °C 1027.3 hPa West 6.4 km/h 14.5 km/h 91 % 0.0 mm 0 W/m2
21:00 11.3 °C 9.9 °C 1027.3 hPa NW 6.4 km/h 14.5 km/h 91 % 0.0 mm 0 W/m2
21:05 11.1 °C 9.7 °C 1027.7 hPa NW 6.4 km/h 14.5 km/h 91 % 0.0 mm 0 W/m2
21:10 11.2 °C 9.8 °C 1027.7 hPa NW 9.7 km/h 14.5 km/h 91 % 0.0 mm 0 W/m2
21:15 11.2 °C 9.8 °C 1027.7 hPa NW 6.4 km/h 14.5 km/h 91 % 0.0 mm 0 W/m2
21:20 11.1 °C 9.6 °C 1027.7 hPa WNW 4.8 km/h 12.9 km/h 91 % 0.0 mm 0 W/m2
21:25 10.9 °C 9.7 °C 1027.7 hPa West 8.0 km/h 9.7 km/h 92 % 0.0 mm 0 W/m2
21:30 10.9 °C 9.6 °C 1027.7 hPa WNW 4.8 km/h 8.0 km/h 92 % 0.0 mm 0 W/m2
21:35 10.8 °C 9.5 °C 1027.7 hPa NW 3.2 km/h 9.7 km/h 92 % 0.0 mm 0 W/m2
21:40 10.8 °C 9.7 °C 1027.7 hPa NW 4.8 km/h 11.3 km/h 93 % 0.0 mm 0 W/m2
21:45 10.9 °C 9.8 °C 1027.7 hPa West 4.8 km/h 11.3 km/h 93 % 0.0 mm 0 W/m2
21:50 10.9 °C 9.8 °C 1027.7 hPa WNW 4.8 km/h 9.7 km/h 93 % 0.0 mm 0 W/m2
21:55 10.9 °C 9.8 °C 1027.7 hPa WNW 8.0 km/h 17.7 km/h 93 % 0.0 mm 0 W/m2
22:00 11.0 °C 9.9 °C 1027.7 hPa NW 12.9 km/h 17.7 km/h 93 % 0.0 mm 0 W/m2
22:05 10.9 °C 9.9 °C 1027.7 hPa NW 9.7 km/h 14.5 km/h 93 % 0.0 mm 0 W/m2
22:10 10.9 °C 9.9 °C 1027.7 hPa Calm   12.9 km/h 93 % 0.0 mm 0 W/m2
22:15 10.9 °C 9.9 °C 1027.3 hPa NW 11.3 km/h 12.9 km/h 93 % 0.0 mm 0 W/m2
22:20 10.9 °C 9.8 °C 1027.3 hPa NW 4.8 km/h 12.9 km/h 93 % 0.0 mm 0 W/m2
22:25 10.8 °C 9.7 °C 1027.3 hPa WNW 8.0 km/h 12.9 km/h 93 % 0.0 mm 0 W/m2
22:30 10.9 °C 9.8 °C 1027.3 hPa WNW 6.4 km/h 11.3 km/h 93 % 0.0 mm 0 W/m2
22:35 10.8 °C 9.7 °C 1027.3 hPa NW 4.8 km/h 12.9 km/h 93 % 0.0 mm 0 W/m2
22:40 10.8 °C 9.7 °C 1027.3 hPa WNW 6.4 km/h 16.1 km/h 93 % 0.0 mm 0 W/m2
22:45 10.8 °C 9.7 °C 1027.3 hPa NW 4.8 km/h 16.1 km/h 93 % 0.0 mm 0 W/m2
22:50 10.8 °C 9.7 °C 1027.3 hPa WNW 4.8 km/h 12.9 km/h 93 % 0.0 mm 0 W/m2
22:55 10.8 °C 9.7 °C 1027.3 hPa WNW 11.3 km/h 17.7 km/h 93 % 0.0 mm 0 W/m2
23:00 11.0 °C 9.9 °C 1027.3 hPa WNW 3.2 km/h 17.7 km/h 93 % 0.0 mm 0 W/m2
23:05 11.0 °C 9.9 °C 1027.3 hPa West 9.7 km/h 16.1 km/h 93 % 0.0 mm 0 W/m2
23:10 11.1 °C 10.0 °C 1027.0 hPa NW 6.4 km/h 16.1 km/h 93 % 0.0 mm 0 W/m2
23:15 11.1 °C 9.9 °C 1027.0 hPa NW 8.0 km/h 16.1 km/h 92 % 0.0 mm 0 W/m2
23:20 11.1 °C 9.8 °C 1027.3 hPa WNW 11.3 km/h 14.5 km/h 92 % 0.0 mm 0 W/m2
23:25 11.1 °C 9.8 °C 1027.3 hPa NW 9.7 km/h 14.5 km/h 92 % 0.0 mm 0 W/m2
23:30 11.1 °C 9.9 °C 1027.0 hPa West 4.8 km/h 14.5 km/h 92 % 0.0 mm 0 W/m2
23:35 11.2 °C 10.0 °C 1027.0 hPa West 3.2 km/h 19.3 km/h 92 % 0.0 mm 0 W/m2
23:40 11.3 °C 9.9 °C 1027.0 hPa WNW 11.3 km/h 19.3 km/h 91 % 0.0 mm 0 W/m2
23:45 11.3 °C 9.9 °C 1027.0 hPa NW 6.4 km/h 17.7 km/h 91 % 0.0 mm 0 W/m2
23:50 11.3 °C 9.9 °C 1027.0 hPa West 4.8 km/h 14.5 km/h 91 % 0.0 mm 0 W/m2
23:55 11.4 °C 10.0 °C 1027.0 hPa WNW 8.0 km/h 19.3 km/h 91 % 0.0 mm 0 W/m2
Avec l'autorisation de Weather Underground - 1.75 mb